sensor_id;sensor_type;location;lat;lon;timestamp;pressure;altitude;pressure_sealevel;temperature;humidity
76331;BME280;65148;51.912;15.570;2023-08-20T00:08:28;101796.70;;;21.81;100.00
76331;BME280;65148;51.912;15.570;2023-08-20T00:23:29;101799.05;;;21.71;100.00
76331;BME280;65148;51.912;15.570;2023-08-20T00:38:49;101801.91;;;21.54;100.00
76331;BME280;65148;51.912;15.570;2023-08-20T00:53:50;101803.53;;;21.55;100.00
76331;BME280;65148;51.912;15.570;2023-08-20T01:09:06;101798.59;;;21.39;100.00
76331;BME280;65148;51.912;15.570;2023-08-20T01:24:44;101807.45;;;21.24;100.00
76331;BME280;65148;51.912;15.570;2023-08-20T01:39:43;101793.28;;;21.17;100.00
76331;BME280;65148;51.912;15.570;2023-08-20T01:58:39;101802.28;;;21.05;100.00
76331;BME280;65148;51.912;15.570;2023-08-20T02:13:40;101800.61;;;21.13;100.00
76331;BME280;65148;51.912;15.570;2023-08-20T02:28:41;101807.98;;;21.09;100.00
76331;BME280;65148;51.912;15.570;2023-08-20T02:44:02;101802.44;;;21.00;100.00
76331;BME280;65148;51.912;15.570;2023-08-20T02:59:03;101789.75;;;20.99;100.00
76331;BME280;65148;51.912;15.570;2023-08-20T03:14:05;101787.66;;;20.96;100.00
76331;BME280;65148;51.912;15.570;2023-08-20T03:29:06;101805.58;;;20.90;100.00
76331;BME280;65148;51.912;15.570;2023-08-20T03:44:25;101804.27;;;20.88;100.00
76331;BME280;65148;51.912;15.570;2023-08-20T03:59:26;101814.33;;;21.01;100.00
76331;BME280;65148;51.912;15.570;2023-08-20T04:14:26;101824.92;;;21.07;100.00
76331;BME280;65148;51.912;15.570;2023-08-20T04:29:27;101833.83;;;21.30;100.00
76331;BME280;65148;51.912;15.570;2023-08-20T04:44:48;101842.86;;;21.48;100.00
76331;BME280;65148;51.912;15.570;2023-08-20T04:59:49;101847.92;;;21.75;100.00
76331;BME280;65148;51.912;15.570;2023-08-20T05:14:50;101860.19;;;22.04;100.00
76331;BME280;65148;51.912;15.570;2023-08-20T05:29:50;101870.39;;;22.33;100.00
76331;BME280;65148;51.912;15.570;2023-08-20T05:45:11;101865.79;;;22.57;100.00
76331;BME280;65148;51.912;15.570;2023-08-20T06:00:12;101862.34;;;22.81;100.00
76331;BME280;65148;51.912;15.570;2023-08-20T06:15:14;101875.55;;;22.97;100.00
76331;BME280;65148;51.912;15.570;2023-08-20T06:30:15;101897.68;;;23.05;100.00
76331;BME280;65148;51.912;15.570;2023-08-20T06:45:34;101893.75;;;23.51;100.00
76331;BME280;65148;51.912;15.570;2023-08-20T07:00:35;101895.24;;;24.10;100.00
76331;BME280;65148;51.912;15.570;2023-08-20T07:15:36;101908.24;;;24.98;100.00
76331;BME280;65148;51.912;15.570;2023-08-20T07:30:37;101911.55;;;25.94;100.00
76331;BME280;65148;51.912;15.570;2023-08-20T07:45:56;101921.52;;;26.65;100.00
76331;BME280;65148;51.912;15.570;2023-08-20T08:00:57;101938.46;;;27.34;100.00
76331;BME280;65148;51.912;15.570;2023-08-20T08:15:59;101957.81;;;28.14;100.00
76331;BME280;65148;51.912;15.570;2023-08-20T08:30:59;101935.03;;;28.72;100.00
76331;BME280;65148;51.912;15.570;2023-08-20T08:46:23;101960.91;;;29.25;85.78
76331;BME280;65148;51.912;15.570;2023-08-20T09:01:25;101968.52;;;29.62;90.70
76331;BME280;65148;51.912;15.570;2023-08-20T09:16:29;101987.84;;;30.18;83.20
76331;BME280;65148;51.912;15.570;2023-08-20T09:31:37;101974.88;;;30.61;75.37
76331;BME280;65148;51.912;15.570;2023-08-20T09:46:41;101973.20;;;31.58;73.11
76331;BME280;65148;51.912;15.570;2023-08-20T10:01:44;101983.16;;;31.12;79.75
76331;BME280;65148;51.912;15.570;2023-08-20T10:17:12;101971.96;;;31.48;76.23
76331;BME280;65148;51.912;15.570;2023-08-20T10:32:15;101981.27;;;31.98;69.80
76331;BME280;65148;51.912;15.570;2023-08-20T10:47:22;101972.20;;;32.88;64.00
76331;BME280;65148;51.912;15.570;2023-08-20T11:02:30;101966.44;;;33.17;61.44
76331;BME280;65148;51.912;15.570;2023-08-20T11:17:43;101962.24;;;33.43;60.69
76331;BME280;65148;51.912;15.570;2023-08-20T11:32:45;101967.64;;;33.16;60.47
76331;BME280;65148;51.912;15.570;2023-08-20T11:47:49;101965.90;;;32.52;61.22
76331;BME280;65148;51.912;15.570;2023-08-20T12:02:52;101959.50;;;32.13;65.32
76331;BME280;65148;51.912;15.570;2023-08-20T12:18:00;101943.83;;;32.05;68.64
76331;BME280;65148;51.912;15.570;2023-08-20T12:33:01;101934.15;;;32.27;67.97
76331;BME280;65148;51.912;15.570;2023-08-20T12:48:05;101929.37;;;31.71;71.53
76331;BME280;65148;51.912;15.570;2023-08-20T13:03:10;101925.98;;;32.57;66.79
76331;BME280;65148;51.912;15.570;2023-08-20T13:18:11;101924.46;;;33.26;59.05
76331;BME280;65148;51.912;15.570;2023-08-20T13:33:14;101917.02;;;33.50;55.92
76331;BME280;65148;51.912;15.570;2023-08-20T13:48:15;101913.99;;;33.23;56.57
76331;BME280;65148;51.912;15.570;2023-08-20T14:03:16;101907.12;;;33.27;56.83
76331;BME280;65148;51.912;15.570;2023-08-20T14:18:17;101905.20;;;32.23;58.00
76331;BME280;65148;51.912;15.570;2023-08-20T14:33:18;101900.52;;;32.86;54.98
76331;BME280;65148;51.912;15.570;2023-08-20T14:48:20;101902.89;;;32.91;50.96
76331;BME280;65148;51.912;15.570;2023-08-20T15:03:41;101898.37;;;33.04;51.85
76331;BME280;65148;51.912;15.570;2023-08-20T15:18:41;101893.34;;;33.33;52.80
76331;BME280;65148;51.912;15.570;2023-08-20T15:33:42;101882.19;;;33.12;52.31
76331;BME280;65148;51.912;15.570;2023-08-20T15:48:44;101880.77;;;32.86;52.39
76331;BME280;65148;51.912;15.570;2023-08-20T16:03:44;101880.82;;;32.75;53.12
76331;BME280;65148;51.912;15.570;2023-08-20T16:18:45;101873.98;;;32.73;56.08
76331;BME280;65148;51.912;15.570;2023-08-20T16:33:46;101887.36;;;32.51;58.09
76331;BME280;65148;51.912;15.570;2023-08-20T16:49:15;101893.55;;;32.00;61.73
76331;BME280;65148;51.912;15.570;2023-08-20T17:04:16;101901.18;;;31.28;63.67
76331;BME280;65148;51.912;15.570;2023-08-20T17:19:26;101899.52;;;31.06;61.49
76331;BME280;65148;51.912;15.570;2023-08-20T17:34:26;101922.69;;;30.60;65.09
76331;BME280;65148;51.912;15.570;2023-08-20T17:49:28;101934.00;;;30.09;67.62
76331;BME280;65148;51.912;15.570;2023-08-20T18:04:29;101923.15;;;29.56;72.03
76331;BME280;65148;51.912;15.570;2023-08-20T18:19:29;101949.02;;;29.02;75.36
76331;BME280;65148;51.912;15.570;2023-08-20T18:34:30;101957.93;;;28.48;80.49
76331;BME280;65148;51.912;15.570;2023-08-20T18:49:31;101983.66;;;28.04;85.04
76331;BME280;65148;51.912;15.570;2023-08-20T19:04:32;101989.91;;;27.71;85.51
76331;BME280;65148;51.912;15.570;2023-08-20T19:19:33;102009.84;;;27.47;86.58
76331;BME280;65148;51.912;15.570;2023-08-20T19:34:34;102023.90;;;27.31;86.75
76331;BME280;65148;51.912;15.570;2023-08-20T19:49:36;102036.28;;;27.11;87.50
76331;BME280;65148;51.912;15.570;2023-08-20T20:04:37;102033.64;;;26.83;89.48
76331;BME280;65148;51.912;15.570;2023-08-20T20:19:50;102030.79;;;26.44;93.56
76331;BME280;65148;51.912;15.570;2023-08-20T20:34:51;102039.88;;;26.10;95.33
76331;BME280;65148;51.912;15.570;2023-08-20T20:49:52;102041.32;;;25.72;98.06
76331;BME280;65148;51.912;15.570;2023-08-20T21:04:53;102062.21;;;25.51;98.18
76331;BME280;65148;51.912;15.570;2023-08-20T21:20:11;102066.16;;;25.22;100.00
76331;BME280;65148;51.912;15.570;2023-08-20T21:35:12;102071.09;;;25.40;100.00
76331;BME280;65148;51.912;15.570;2023-08-20T21:50:14;102086.50;;;25.50;100.00
76331;BME280;65148;51.912;15.570;2023-08-20T22:05:18;102084.05;;;25.49;100.00
76331;BME280;65148;51.912;15.570;2023-08-20T22:20:33;102077.45;;;25.13;100.00
76331;BME280;65148;51.912;15.570;2023-08-20T22:35:34;102087.59;;;24.93;100.00
76331;BME280;65148;51.912;15.570;2023-08-20T22:50:35;102107.92;;;24.94;100.00
76331;BME280;65148;51.912;15.570;2023-08-20T23:05:36;102099.20;;;24.83;100.00
76331;BME280;65148;51.912;15.570;2023-08-20T23:21:00;102102.25;;;24.54;100.00
76331;BME280;65148;51.912;15.570;2023-08-20T23:36:01;102107.12;;;24.32;100.00
76331;BME280;65148;51.912;15.570;2023-08-20T23:51:03;102106.04;;;24.25;100.00
